In Rescue
 
Open Full Screen Window  High Contrast Mode
Wind Gusting 00 knots
07
November 25, 2020 5:21 AM CST
Present Weather: Mist
Weather Information
Wind Direction
  010 °
Wind Speed
  07 kt (8 mph)
Wind Gust
  00 kt (0 mph)
Altimeter
29.86 in
Visibility
5 SM
Temperature
02° C
36° F
Dewpoint
02° C
36° F
Humidity
100%
1hr Rain Fall
00.00 in.
24hr Rain Fall
00.00 in.
Sky Condition
Overcast @ 700 ft
IFR

METAR KSYN 251121Z AUTO 01007KT 5SM BR OVC007 02/02 A2986 RMK AO2 T00190015

FAA Disclaimer: The data displayed is for advisory purposes only and is not to be used for flight planning or operations.